Time;durP1;ratioP1;P1;durP2;ratioP2;P2;SDS_P1;SDS_P2;PMS_P1;PMS_P2;Temp;Humidity;BMP_temperature;BMP_pressure;BME280_temperature;BME280_humidity;BME280_pressure;Samples;Min_cycle;Max_cycle;Signal;HPM_P1;HPM_P2
2021/10/03 00:00:11;;;;;;;35.85;25.17;;;11.50;99.90;;;;;;4924237;28;20118;-86
2021/10/03 00:02:42;;;;;;;33.50;22.98;;;11.60;99.90;;;;;;4909461;28;20459;-86
2021/10/03 00:05:12;;;;;;;34.15;25.30;;;11.60;99.90;;;;;;4924593;28;20059;-87
2021/10/03 00:07:55;;;;;;;38.65;24.52;;;11.60;99.90;;;;;;4926211;28;20189;-86
2021/10/03 00:10:26;;;;;;;33.92;23.90;;;11.70;99.90;;;;;;4909862;28;20051;-87
2021/10/03 00:12:53;;;;;;;31.83;24.10;;;11.70;99.90;;;;;;4923131;28;20094;-85
2021/10/03 00:15:21;;;;;;;33.20;24.25;;;11.60;99.90;;;;;;4907745;28;20436;-87
2021/10/03 00:17:49;;;;;;;38.13;24.90;;;11.60;99.90;;;;;;4924966;28;20061;-87
2021/10/03 00:20:17;;;;;;;35.25;24.73;;;11.60;99.90;;;;;;4925858;28;20062;-87
2021/10/03 00:22:45;;;;;;;36.38;25.05;;;11.70;99.90;;;;;;4926517;28;20073;-87
2021/10/03 00:25:15;;;;;;;31.58;25.27;;;11.70;99.90;;;;;;4925542;28;20543;-86
2021/10/03 00:27:43;;;;;;;38.25;27.83;;;11.60;99.90;;;;;;4926387;28;20740;-85
2021/10/03 00:30:11;;;;;;;37.65;26.52;;;11.60;99.90;;;;;;4901514;28;20417;-86
2021/10/03 00:32:39;;;;;;;40.72;28.52;;;11.60;99.90;;;;;;4923398;28;21517;-86
2021/10/03 00:35:07;;;;;;;38.30;25.77;;;11.70;99.90;;;;;;4918708;28;20124;-86
2021/10/03 00:37:34;;;;;;;34.08;27.60;;;11.70;99.90;;;;;;4922078;28;20078;-86
2021/10/03 00:40:00;;;;;;;38.90;27.40;;;11.70;99.90;;;;;;4919238;28;20039;-85
2021/10/03 00:42:28;;;;;;;44.42;30.92;;;11.70;99.90;;;;;;4902775;28;20125;-86
2021/10/03 00:44:55;;;;;;;42.00;31.15;;;11.80;99.90;;;;;;4919895;28;20120;-86
2021/10/03 00:47:23;;;;;;;39.45;29.60;;;11.80;99.90;;;;;;4887156;28;20070;-85
2021/10/03 00:49:50;;;;;;;40.75;29.63;;;11.90;99.90;;;;;;4920485;28;20192;-86
2021/10/03 00:52:17;;;;;;;40.00;29.98;;;11.90;99.90;;;;;;4923039;28;20153;-86
2021/10/03 00:54:44;;;;;;;50.10;34.55;;;11.90;99.90;;;;;;4919690;28;20489;-87
2021/10/03 00:57:11;;;;;;;40.53;30.65;;;12.00;99.90;;;;;;4901739;28;20087;-86
2021/10/03 00:59:38;;;;;;;42.15;31.13;;;12.10;99.90;;;;;;4882341;28;20054;-86
2021/10/03 01:02:05;;;;;;;43.88;32.53;;;12.00;99.90;;;;;;4917946;28;20051;-84
2021/10/03 01:04:32;;;;;;;50.83;34.63;;;12.10;99.90;;;;;;4922320;28;20078;-85
2021/10/03 01:06:59;;;;;;;47.63;35.03;;;12.10;99.90;;;;;;4907978;28;20109;-84
2021/10/03 01:09:26;;;;;;;50.08;36.03;;;12.20;99.90;;;;;;4923104;28;20712;-84
2021/10/03 01:11:53;;;;;;;47.22;35.20;;;12.20;99.90;;;;;;4903013;28;20061;-84
2021/10/03 01:14:21;;;;;;;47.08;34.83;;;12.30;99.90;;;;;;4906239;28;20121;-84
2021/10/03 01:16:49;;;;;;;44.05;32.70;;;12.20;99.90;;;;;;4907075;28;20062;-84
2021/10/03 01:19:17;;;;;;;46.53;33.60;;;12.20;99.90;;;;;;4889800;28;22238;-84
2021/10/03 01:21:46;;;;;;;49.60;35.47;;;12.30;99.90;;;;;;4923594;28;20055;-84
2021/10/03 01:24:13;;;;;;;57.15;37.70;;;12.30;99.90;;;;;;4925010;28;20133;-85
2021/10/03 01:26:41;;;;;;;48.58;35.95;;;12.30;99.90;;;;;;4926276;28;20145;-84
2021/10/03 01:29:10;;;;;;;51.13;35.35;;;12.40;99.90;;;;;;4917799;28;20065;-84
2021/10/03 01:31:37;;;;;;;44.75;33.97;;;12.50;99.90;;;;;;4919538;28;20117;-84
2021/10/03 01:34:05;;;;;;;49.65;37.42;;;12.50;99.90;;;;;;4921528;28;20043;-84
2021/10/03 01:36:32;;;;;;;53.22;35.75;;;12.50;99.90;;;;;;4919958;28;20102;-84
2021/10/03 01:38:59;;;;;;;47.85;35.75;;;12.60;99.90;;;;;;4915775;28;20670;-85
2021/10/03 01:41:25;;;;;;;52.25;34.55;;;12.60;99.90;;;;;;4920778;28;20078;-84
2021/10/03 01:43:53;;;;;;;40.33;34.17;;;12.70;99.90;;;;;;4920280;28;20097;-84
2021/10/03 01:46:20;;;;;;;49.80;36.65;;;12.70;99.90;;;;;;4906404;28;20097;-85
2021/10/03 01:48:47;;;;;;;47.08;35.25;;;12.70;99.90;;;;;;4904087;28;20062;-84
2021/10/03 01:51:16;;;;;;;44.85;34.47;;;12.70;99.90;;;;;;4920771;28;20061;-85
2021/10/03 01:53:47;;;;;;;49.58;35.08;;;12.70;99.90;;;;;;4902476;28;20551;-84
2021/10/03 01:56:15;;;;;;;42.78;35.15;;;12.70;99.90;;;;;;4903012;28;20055;-84
2021/10/03 01:58:55;;;;;;;44.95;35.35;;;12.80;99.90;;;;;;4901747;28;20079;-85
2021/10/03 02:01:29;;;;;;;41.63;33.13;;;12.80;99.90;;;;;;4917828;28;20054;-84
2021/10/03 02:03:57;;;;;;;43.38;32.53;;;12.80;99.90;;;;;;4919618;28;20154;-85
2021/10/03 02:06:25;;;;;;;47.28;33.70;;;12.80;99.90;;;;;;4900767;28;20102;-84
2021/10/03 02:08:54;;;;;;;48.47;35.45;;;12.80;99.90;;;;;;4915933;28;20065;-85
2021/10/03 02:11:22;;;;;;;42.90;33.50;;;12.80;99.90;;;;;;4913907;28;20047;-84
2021/10/03 02:13:49;;;;;;;45.55;35.22;;;12.80;99.90;;;;;;4918597;28;20843;-85
2021/10/03 02:16:16;;;;;;;48.83;35.83;;;12.90;99.90;;;;;;4917441;28;20058;-85
2021/10/03 02:18:46;;;;;;;56.58;36.75;;;12.90;99.90;;;;;;4904439;28;22454;-85
2021/10/03 02:21:14;;;;;;;49.88;38.33;;;12.90;99.90;;;;;;4901970;28;20535;-85
2021/10/03 02:23:41;;;;;;;39.58;33.42;;;12.90;99.90;;;;;;4923378;28;20093;-84
2021/10/03 02:26:09;;;;;;;47.63;35.30;;;12.90;99.90;;;;;;4919008;28;20098;-84
2021/10/03 02:28:36;;;;;;;51.22;38.90;;;12.90;99.90;;;;;;4901493;28;20050;-84
2021/10/03 02:31:08;;;;;;;47.22;37.63;;;12.90;99.90;;;;;;4899736;28;20066;-84
2021/10/03 02:33:37;;;;;;;44.08;35.80;;;12.90;99.90;;;;;;4919042;28;20042;-84
2021/10/03 02:36:07;;;;;;;44.90;35.65;;;12.90;99.90;;;;;;4917748;28;20062;-85
2021/10/03 02:38:36;;;;;;;45.78;32.90;;;12.90;99.90;;;;;;4918668;28;20612;-84
2021/10/03 02:41:07;;;;;;;48.92;34.70;;;13.00;99.90;;;;;;4919944;28;20311;-85
2021/10/03 02:43:36;;;;;;;45.42;33.58;;;13.00;99.90;;;;;;4905021;28;20078;-84
2021/10/03 02:46:05;;;;;;;45.08;33.85;;;12.90;99.90;;;;;;4927838;28;20125;-84
2021/10/03 02:48:40;;;;;;;47.42;34.75;;;12.90;99.90;;;;;;4928074;28;20273;-84
2021/10/03 02:51:07;;;;;;;44.13;31.67;;;12.90;99.90;;;;;;4927742;28;20051;-84
2021/10/03 02:53:34;;;;;;;45.10;33.15;;;13.00;99.90;;;;;;4926230;28;20046;-84
2021/10/03 02:56:01;;;;;;;51.17;34.55;;;13.00;99.90;;;;;;4927990;28;20713;-85
2021/10/03 02:58:29;;;;;;;45.85;34.88;;;13.00;99.90;;;;;;4926246;28;20129;-84
2021/10/03 03:00:56;;;;;;;48.88;35.17;;;13.00;99.90;;;;;;4928287;28;20154;-84
2021/10/03 03:03:24;;;;;;;48.50;36.60;;;13.00;99.90;;;;;;4908759;28;20582;-84
2021/10/03 03:05:50;;;;;;;41.22;33.30;;;12.90;99.90;;;;;;4927383;28;20419;-85
2021/10/03 03:08:17;;;;;;;45.42;33.83;;;13.00;99.90;;;;;;4925767;28;20051;-84
2021/10/03 03:10:44;;;;;;;39.88;30.38;;;13.00;99.90;;;;;;4906099;28;20185;-84
2021/10/03 03:13:11;;;;;;;47.00;32.33;;;13.00;99.90;;;;;;4923651;28;20813;-85
2021/10/03 03:15:38;;;;;;;45.85;34.28;;;13.00;99.90;;;;;;4904736;28;20153;-85
2021/10/03 03:18:06;;;;;;;46.50;33.15;;;12.90;99.90;;;;;;4906536;28;20158;-85
2021/10/03 03:20:33;;;;;;;49.28;33.72;;;13.00;99.90;;;;;;4923776;28;20445;-85
2021/10/03 03:23:00;;;;;;;42.90;34.78;;;12.90;99.90;;;;;;4924241;28;20063;-85
2021/10/03 03:25:27;;;;;;;42.65;32.13;;;13.00;99.90;;;;;;4922436;28;20134;-85
2021/10/03 03:27:54;;;;;;;48.20;34.40;;;13.00;99.90;;;;;;4922271;28;20062;-85
2021/10/03 03:30:21;;;;;;;50.40;34.45;;;13.00;99.90;;;;;;4904619;28;20050;-85
2021/10/03 03:32:48;;;;;;;47.70;30.92;;;13.00;99.90;;;;;;4907995;28;20055;-85
2021/10/03 03:35:15;;;;;;;47.22;33.53;;;12.90;99.90;;;;;;4918428;28;20173;-84
2021/10/03 03:37:42;;;;;;;43.65;32.20;;;13.00;99.90;;;;;;4904260;28;20089;-86
2021/10/03 03:40:11;;;;;;;50.17;32.47;;;13.00;99.90;;;;;;4921397;28;20055;-85
2021/10/03 03:42:39;;;;;;;43.45;32.63;;;13.00;99.90;;;;;;4921862;28;20070;-84
2021/10/03 03:45:07;;;;;;;51.70;35.28;;;13.00;99.90;;;;;;4918995;28;20121;-86
2021/10/03 03:47:34;;;;;;;50.38;34.05;;;13.00;99.90;;;;;;4924143;28;20396;-84
2021/10/03 03:50:02;;;;;;;51.40;31.83;;;12.90;99.90;;;;;;4903555;28;20125;-85
2021/10/03 03:52:29;;;;;;;46.05;33.20;;;13.00;99.90;;;;;;4923771;28;20685;-85
2021/10/03 03:54:56;;;;;;;42.92;32.53;;;13.00;99.90;;;;;;4920218;28;20143;-85
2021/10/03 03:57:23;;;;;;;44.13;33.83;;;13.00;99.90;;;;;;4888253;28;20050;-85
2021/10/03 03:59:50;;;;;;;41.90;32.13;;;13.00;99.90;;;;;;4922804;28;20054;-85
2021/10/03 04:02:17;;;;;;;45.50;33.35;;;13.00;99.90;;;;;;4923508;28;20058;-85
2021/10/03 04:04:44;;;;;;;44.70;30.95;;;13.00;99.90;;;;;;4925835;28;20463;-85
2021/10/03 04:07:12;;;;;;;50.08;33.55;;;13.00;99.90;;;;;;4922104;28;20069;-85
2021/10/03 04:09:39;;;;;;;49.42;32.03;;;13.00;99.90;;;;;;4925773;28;20054;-85
2021/10/03 04:12:06;;;;;;;44.63;32.75;;;13.00;99.90;;;;;;4907672;28;20472;-84
2021/10/03 04:14:33;;;;;;;52.17;36.28;;;13.00;99.90;;;;;;4928094;28;20464;-85
2021/10/03 04:17:00;;;;;;;43.63;31.83;;;13.00;99.90;;;;;;4905620;28;20047;-85
2021/10/03 04:19:27;;;;;;;41.28;32.22;;;13.00;99.90;;;;;;4923246;28;20447;-85
2021/10/03 04:21:54;;;;;;;45.33;32.03;;;13.00;99.90;;;;;;4919742;28;20105;-85
2021/10/03 04:24:21;;;;;;;47.25;32.10;;;13.00;99.90;;;;;;4919397;28;20070;-84
2021/10/03 04:26:48;;;;;;;47.97;32.35;;;13.00;99.90;;;;;;4921355;28;20043;-86
2021/10/03 04:29:15;;;;;;;47.92;32.60;;;13.00;99.90;;;;;;4924174;28;20043;-85
2021/10/03 04:31:42;;;;;;;44.42;33.22;;;13.00;99.90;;;;;;4907389;28;20245;-85
2021/10/03 04:34:09;;;;;;;43.17;33.78;;;13.00;99.90;;;;;;4892688;28;20047;-85
2021/10/03 04:36:36;;;;;;;38.10;31.58;;;13.00;99.90;;;;;;4925600;28;20079;-84
2021/10/03 04:39:04;;;;;;;44.17;33.20;;;13.00;99.90;;;;;;4903700;28;20699;-85
2021/10/03 04:41:32;;;;;;;47.90;32.05;;;13.00;99.90;;;;;;4919373;28;23631;-84
2021/10/03 04:43:59;;;;;;;46.03;33.45;;;13.00;99.90;;;;;;4907265;28;20492;-84
2021/10/03 04:46:26;;;;;;;47.72;30.42;;;13.00;99.90;;;;;;4924769;28;20050;-85
2021/10/03 04:48:53;;;;;;;43.88;30.60;;;13.00;99.90;;;;;;4924689;28;20109;-85
2021/10/03 04:51:20;;;;;;;36.33;29.13;;;13.00;99.90;;;;;;4905308;28;20121;-85
2021/10/03 04:53:47;;;;;;;41.80;31.60;;;13.10;99.90;;;;;;4926106;28;20523;-85
2021/10/03 04:56:14;;;;;;;40.70;31.77;;;13.10;99.90;;;;;;4926254;28;20066;-86
2021/10/03 04:58:42;;;;;;;40.78;29.15;;;13.00;99.90;;;;;;4906748;28;20950;-85
2021/10/03 05:01:09;;;;;;;38.63;32.40;;;13.00;99.90;;;;;;4922271;28;20547;-85
2021/10/03 05:03:36;;;;;;;37.70;28.52;;;13.00;99.90;;;;;;4907758;28;20055;-86
2021/10/03 05:06:07;;;;;;;41.13;28.23;;;13.10;99.90;;;;;;4908534;28;20050;-85
2021/10/03 05:08:35;;;;;;;43.28;30.73;;;13.00;99.90;;;;;;4906375;28;20070;-86
2021/10/03 05:11:03;;;;;;;39.90;30.55;;;13.10;99.90;;;;;;4919541;28;20419;-86
2021/10/03 05:13:32;;;;;;;38.95;29.15;;;13.00;99.90;;;;;;4905426;28;20760;-86
2021/10/03 05:16:00;;;;;;;37.45;29.52;;;13.10;99.90;;;;;;4923914;28;20101;-85
2021/10/03 05:18:27;;;;;;;45.33;32.30;;;13.10;99.90;;;;;;4923595;28;20085;-85
2021/10/03 05:20:54;;;;;;;40.20;30.70;;;13.10;99.90;;;;;;4908917;28;20069;-85
2021/10/03 05:23:21;;;;;;;42.22;32.78;;;13.10;99.90;;;;;;4906491;28;20050;-85
2021/10/03 05:25:48;;;;;;;37.58;30.25;;;13.10;99.90;;;;;;4906893;28;22259;-85
2021/10/03 05:28:15;;;;;;;47.75;33.47;;;13.20;99.90;;;;;;4906736;28;22932;-85
2021/10/03 05:30:42;;;;;;;39.03;28.25;;;13.10;99.90;;;;;;4921921;28;20787;-85
2021/10/03 05:33:09;;;;;;;44.25;30.55;;;13.10;99.90;;;;;;4921664;28;20125;-85
2021/10/03 05:35:36;;;;;;;42.80;32.35;;;13.10;99.90;;;;;;4903155;28;20053;-86
2021/10/03 05:38:03;;;;;;;40.83;30.73;;;13.20;99.90;;;;;;4900302;28;20085;-86
2021/10/03 05:40:31;;;;;;;41.80;30.13;;;13.10;99.90;;;;;;4900192;28;20161;-86
2021/10/03 05:42:59;;;;;;;37.60;28.83;;;13.20;99.90;;;;;;4921144;28;20075;-85
2021/10/03 05:45:26;;;;;;;41.83;29.05;;;13.20;99.90;;;;;;4923686;28;20058;-86
2021/10/03 05:47:53;;;;;;;33.70;26.27;;;13.20;99.90;;;;;;4920040;28;20082;-86
2021/10/03 05:50:20;;;;;;;37.45;28.75;;;13.20;99.90;;;;;;4925106;28;20063;-85
2021/10/03 05:52:47;;;;;;;39.50;29.60;;;13.20;99.90;;;;;;4923709;28;20492;-85
2021/10/03 05:55:14;;;;;;;36.15;26.05;;;13.20;99.90;;;;;;4922953;28;20075;-85
2021/10/03 05:57:41;;;;;;;43.25;30.48;;;13.20;99.90;;;;;;4919762;28;22375;-85
2021/10/03 06:00:09;;;;;;;35.85;27.13;;;13.20;99.90;;;;;;4889846;28;20141;-84
2021/10/03 06:02:36;;;;;;;34.78;27.25;;;13.20;99.90;;;;;;4905209;28;20062;-86
2021/10/03 06:05:04;;;;;;;34.13;26.73;;;13.30;99.90;;;;;;4919290;28;20044;-84
2021/10/03 06:07:31;;;;;;;35.85;27.85;;;13.30;99.90;;;;;;4887885;28;20054;-84
2021/10/03 06:09:58;;;;;;;34.22;26.20;;;13.30;99.90;;;;;;4916276;28;20075;-86
2021/10/03 06:12:25;;;;;;;39.20;28.00;;;13.30;99.90;;;;;;4917346;28;20157;-86
2021/10/03 06:14:52;;;;;;;37.22;27.17;;;13.30;99.90;;;;;;4916692;28;20208;-85
2021/10/03 06:17:20;;;;;;;39.90;27.95;;;13.30;99.90;;;;;;4913714;28;20054;-85
2021/10/03 06:19:47;;;;;;;37.42;26.90;;;13.30;99.90;;;;;;4915680;28;20113;-85
2021/10/03 06:22:14;;;;;;;31.00;24.45;;;13.30;99.90;;;;;;4916414;28;20058;-84
2021/10/03 06:24:41;;;;;;;37.65;27.83;;;13.40;99.90;;;;;;4919495;28;20149;-85
2021/10/03 06:27:08;;;;;;;39.38;29.38;;;13.30;99.90;;;;;;4916398;28;20055;-84
2021/10/03 06:29:35;;;;;;;34.55;25.65;;;13.30;99.90;;;;;;4902610;28;20065;-85
2021/10/03 06:32:02;;;;;;;36.88;28.67;;;13.40;99.90;;;;;;4900878;28;20413;-85
2021/10/03 06:34:29;;;;;;;35.88;26.73;;;13.40;99.90;;;;;;4916967;28;20193;-85
2021/10/03 06:36:56;;;;;;;35.63;25.48;;;13.40;99.90;;;;;;4915541;28;20122;-85
2021/10/03 06:39:24;;;;;;;36.50;29.42;;;13.40;99.90;;;;;;4904002;28;20621;-85
2021/10/03 06:41:50;;;;;;;39.72;27.25;;;13.50;99.90;;;;;;4916869;28;20043;-85
2021/10/03 06:44:18;;;;;;;38.63;27.27;;;13.50;99.90;;;;;;4907512;28;20054;-86
2021/10/03 06:46:45;;;;;;;29.13;24.92;;;13.50;99.90;;;;;;4905921;28;20059;-85
2021/10/03 06:49:12;;;;;;;34.80;26.52;;;13.60;99.90;;;;;;4923683;28;20133;-85
2021/10/03 06:51:42;;;;;;;39.17;27.63;;;13.60;99.90;;;;;;4923939;28;20081;-84
2021/10/03 06:54:10;;;;;;;29.40;23.83;;;13.60;99.90;;;;;;4921413;28;20055;-85
2021/10/03 06:56:38;;;;;;;36.15;23.75;;;13.70;99.90;;;;;;4889163;28;20528;-84
2021/10/03 06:59:04;;;;;;;30.00;26.08;;;13.70;99.90;;;;;;4917452;28;20531;-85
2021/10/03 07:01:32;;;;;;;33.70;28.60;;;13.70;99.90;;;;;;4919765;28;20054;-85
2021/10/03 07:03:59;;;;;;;34.63;26.75;;;13.80;99.90;;;;;;4901919;28;20162;-84
2021/10/03 07:06:26;;;;;;;32.65;24.75;;;13.80;99.90;;;;;;4905849;28;20058;-85
2021/10/03 07:08:53;;;;;;;29.42;22.95;;;13.90;99.90;;;;;;4922503;28;20054;-85
2021/10/03 07:11:20;;;;;;;30.80;24.25;;;13.90;99.90;;;;;;4923461;28;20074;-85
2021/10/03 07:13:49;;;;;;;33.15;25.23;;;14.00;99.90;;;;;;4923747;28;20066;-84
2021/10/03 07:16:17;;;;;;;32.80;26.60;;;14.00;99.90;;;;;;4904801;28;20054;-84
2021/10/03 07:18:44;;;;;;;26.30;22.85;;;14.00;99.90;;;;;;4922606;28;20439;-85
2021/10/03 07:21:12;;;;;;;31.30;23.50;;;14.10;99.90;;;;;;4916758;28;20475;-84
2021/10/03 07:23:39;;;;;;;30.58;21.90;;;14.10;99.90;;;;;;4919588;28;20070;-85
2021/10/03 07:26:07;;;;;;;31.92;25.17;;;14.10;99.90;;;;;;4919454;28;20051;-85
2021/10/03 07:28:35;;;;;;;29.98;25.10;;;14.10;99.90;;;;;;4916341;28;21245;-85
2021/10/03 07:31:03;;;;;;;27.17;24.27;;;14.10;99.90;;;;;;4903571;28;20995;-85
2021/10/03 07:33:30;;;;;;;30.08;22.88;;;14.20;99.90;;;;;;4921973;28;20042;-85
2021/10/03 07:35:58;;;;;;;26.88;22.58;;;14.20;99.90;;;;;;4919456;28;20062;-85
2021/10/03 07:38:25;;;;;;;30.42;25.40;;;14.20;99.90;;;;;;4923518;28;20047;-85
2021/10/03 07:40:52;;;;;;;26.67;23.10;;;14.20;99.90;;;;;;4921882;28;20058;-84
2021/10/03 07:43:19;;;;;;;29.10;25.05;;;14.20;99.90;;;;;;4936677;28;20448;-85
2021/10/03 07:45:46;;;;;;;28.95;24.70;;;14.20;99.90;;;;;;4942939;28;20488;-84
2021/10/03 07:48:13;;;;;;;31.70;23.00;;;14.20;99.90;;;;;;4936650;28;20600;-85
2021/10/03 07:50:40;;;;;;;29.58;23.15;;;14.30;99.90;;;;;;4939752;28;20515;-84
2021/10/03 07:53:06;;;;;;;28.17;23.40;;;14.20;99.90;;;;;;4943458;28;20101;-84
2021/10/03 07:55:33;;;;;;;33.25;24.55;;;14.30;99.90;;;;;;4942477;28;20062;-84
2021/10/03 07:58:05;;;;;;;30.98;23.60;;;14.30;99.90;;;;;;4927018;28;20476;-85
2021/10/03 08:00:33;;;;;;;23.85;20.38;;;14.40;99.90;;;;;;4918261;28;20051;-83
2021/10/03 08:03:01;;;;;;;24.27;19.83;;;14.40;99.90;;;;;;4944349;28;20050;-84
2021/10/03 08:05:29;;;;;;;32.35;24.35;;;14.50;99.90;;;;;;4943628;28;20933;-85
2021/10/03 08:07:59;;;;;;;28.10;21.73;;;14.50;99.90;;;;;;4943963;28;20118;-85
2021/10/03 08:10:27;;;;;;;30.83;23.05;;;14.60;99.90;;;;;;4942399;28;20060;-85
2021/10/03 08:12:54;;;;;;;27.10;21.67;;;14.60;99.90;;;;;;4936231;28;21101;-84
2021/10/03 08:15:21;;;;;;;27.98;22.33;;;14.70;99.90;;;;;;4942566;28;20050;-84
2021/10/03 08:17:48;;;;;;;23.45;20.55;;;14.70;99.90;;;;;;4949258;28;20121;-84
2021/10/03 08:20:16;;;;;;;28.88;21.15;;;14.80;99.90;;;;;;4943751;28;20617;-84
2021/10/03 08:22:43;;;;;;;30.02;22.95;;;14.90;99.90;;;;;;4948258;28;20054;-84
2021/10/03 08:25:10;;;;;;;25.25;21.10;;;14.90;99.90;;;;;;4916970;28;20074;-85
2021/10/03 08:27:37;;;;;;;26.83;21.42;;;15.00;99.90;;;;;;4901278;28;20202;-84
2021/10/03 08:30:06;;;;;;;30.17;23.30;;;15.10;99.90;;;;;;4921321;28;20138;-84
2021/10/03 08:32:33;;;;;;;23.80;20.30;;;15.10;99.90;;;;;;4923297;28;20161;-84
2021/10/03 08:35:00;;;;;;;24.42;21.92;;;15.20;99.90;;;;;;4920473;28;20046;-84
2021/10/03 08:37:27;;;;;;;25.67;20.13;;;15.30;99.90;;;;;;4905972;28;20047;-84
2021/10/03 08:39:54;;;;;;;22.40;18.73;;;15.30;99.90;;;;;;4906041;28;20674;-84
2021/10/03 08:42:21;;;;;;;27.08;19.13;;;15.40;99.90;;;;;;4924138;28;20794;-84
2021/10/03 08:44:48;;;;;;;22.75;20.35;;;15.40;99.90;;;;;;4920944;28;22367;-84
2021/10/03 08:47:15;;;;;;;24.70;19.88;;;15.40;99.90;;;;;;4898431;28;20067;-85
2021/10/03 08:49:42;;;;;;;22.08;16.92;;;15.50;99.90;;;;;;4916823;28;20236;-86
2021/10/03 08:52:10;;;;;;;22.95;18.65;;;15.50;99.90;;;;;;4908908;28;20055;-86
2021/10/03 08:54:39;;;;;;;22.33;19.33;;;15.50;99.90;;;;;;4924200;28;20127;-85
2021/10/03 08:57:07;;;;;;;25.30;19.08;;;15.60;99.90;;;;;;4916968;28;20078;-86
2021/10/03 08:59:35;;;;;;;20.63;17.20;;;15.60;99.90;;;;;;4911608;28;20178;-86
2021/10/03 09:02:03;;;;;;;22.25;17.15;;;15.60;99.90;;;;;;4899206;28;20114;-85
2021/10/03 09:04:37;;;;;;;24.42;18.08;;;15.70;99.90;;;;;;4882495;28;21993;-85
2021/10/03 09:07:19;;;;;;;24.10;16.75;;;15.80;99.90;;;;;;4920933;28;20174;-86
2021/10/03 09:09:59;;;;;;;20.92;17.23;;;15.90;99.90;;;;;;4921875;28;20054;-85
2021/10/03 09:12:37;;;;;;;21.58;16.42;;;16.00;99.90;;;;;;4904730;28;20062;-86
2021/10/03 09:15:18;;;;;;;16.92;15.05;;;16.10;99.90;;;;;;4922496;28;20047;-85
2021/10/03 09:17:50;;;;;;;22.20;17.77;;;16.20;99.90;;;;;;4922637;28;20050;-85
2021/10/03 09:20:20;;;;;;;16.75;14.95;;;16.30;99.90;;;;;;4923347;28;20078;-84
2021/10/03 09:23:07;;;;;;;20.23;13.93;;;16.30;99.90;;;;;;4922947;28;20055;-86
2021/10/03 09:26:01;;;;;;;24.15;15.80;;;16.40;99.90;;;;;;4898081;28;20113;-86
2021/10/03 09:28:33;;;;;;;14.75;13.25;;;16.50;99.90;;;;;;4875349;28;20149;-85
2021/10/03 09:31:10;;;;;;;16.90;13.25;;;16.50;99.90;;;;;;4917401;28;22900;-86
2021/10/03 09:33:44;;;;;;;15.38;12.20;;;16.60;99.90;;;;;;4894286;28;20058;-85
2021/10/03 09:36:15;;;;;;;17.02;13.73;;;16.70;99.90;;;;;;4904757;28;20078;-86
2021/10/03 09:38:44;;;;;;;17.25;14.10;;;16.80;99.90;;;;;;4921776;28;20692;-88
2021/10/03 09:41:12;;;;;;;16.15;14.30;;;16.90;99.90;;;;;;4923970;28;20049;-85
2021/10/03 09:43:43;;;;;;;16.15;11.90;;;16.90;99.90;;;;;;4925821;28;20601;-85
2021/10/03 09:46:34;;;;;;;13.65;12.27;;;17.00;99.90;;;;;;4924938;28;22744;-86
2021/10/03 09:49:04;;;;;;;14.57;13.07;;;17.10;99.90;;;;;;4921041;28;20069;-86
2021/10/03 09:51:32;;;;;;;15.25;13.38;;;17.00;99.90;;;;;;4920182;28;20058;-83
2021/10/03 09:54:00;;;;;;;16.30;12.15;;;17.10;99.90;;;;;;4917606;28;20121;-85
2021/10/03 09:56:27;;;;;;;15.25;12.32;;;17.00;99.90;;;;;;4905865;28;20057;-83
2021/10/03 09:58:55;;;;;;;24.25;12.88;;;17.00;99.90;;;;;;4909080;28;20047;-84
2021/10/03 10:01:22;;;;;;;13.57;12.07;;;17.00;99.90;;;;;;4922802;28;20109;-83
2021/10/03 10:03:50;;;;;;;14.38;12.18;;;17.00;99.90;;;;;;4924091;28;20055;-84
2021/10/03 10:06:18;;;;;;;16.10;11.90;;;17.00;99.90;;;;;;4921933;28;20051;-83
2021/10/03 10:08:47;;;;;;;12.95;11.65;;;17.00;99.90;;;;;;4905532;28;20058;-83
2021/10/03 10:11:26;;;;;;;16.88;12.57;;;17.00;99.90;;;;;;4918656;28;20055;-83
2021/10/03 10:13:56;;;;;;;17.93;12.30;;;17.10;99.90;;;;;;4922735;28;20101;-83
2021/10/03 10:16:47;;;;;;;16.42;11.80;;;17.00;99.90;;;;;;4922876;28;20046;-84
2021/10/03 10:19:36;;;;;;;15.43;11.75;;;17.00;99.90;;;;;;4905732;28;20089;-82
2021/10/03 10:22:12;;;;;;;13.65;12.25;;;17.00;99.90;;;;;;4907530;28;20065;-82
2021/10/03 10:24:52;;;;;;;15.15;13.30;;;17.10;99.90;;;;;;4907382;28;20139;-84
2021/10/03 10:27:24;;;;;;;16.73;12.43;;;17.10;99.90;;;;;;4906838;28;20054;-84
2021/10/03 10:29:59;;;;;;;16.15;11.93;;;17.10;99.90;;;;;;4924388;28;20078;-84
2021/10/03 10:32:28;;;;;;;14.57;12.25;;;17.10;99.90;;;;;;4908960;28;20101;-84
2021/10/03 10:35:10;;;;;;;13.80;11.50;;;17.10;99.90;;;;;;4923447;28;20063;-84
2021/10/03 10:37:48;;;;;;;14.73;11.70;;;17.10;99.90;;;;;;4923158;28;20043;-84
2021/10/03 10:40:22;;;;;;;15.07;11.93;;;17.10;99.90;;;;;;4925096;28;20043;-84
2021/10/03 10:43:18;;;;;;;14.27;11.50;;;17.20;99.90;;;;;;4924966;28;20043;-84
2021/10/03 10:45:46;;;;;;;14.30;12.15;;;17.20;99.90;;;;;;4890695;28;20043;-85
2021/10/03 10:48:18;;;;;;;14.93;12.82;;;17.20;99.90;;;;;;4922873;28;20165;-87
2021/10/03 10:50:44;;;;;;;15.43;12.05;;;17.10;99.90;;;;;;4925088;28;20082;-83
2021/10/03 10:53:21;;;;;;;16.95;12.40;;;17.10;99.90;;;;;;4912145;28;20142;-83
2021/10/03 10:56:08;;;;;;;18.67;11.98;;;17.00;99.90;;;;;;4894805;28;20046;-84
2021/10/03 10:58:37;;;;;;;18.00;11.35;;;17.00;99.90;;;;;;4908570;28;20829;-84
2021/10/03 11:01:12;;;;;;;16.27;12.25;;;16.90;99.90;;;;;;4880136;28;20039;-84
2021/10/03 11:04:00;;;;;;;13.88;11.80;;;16.90;99.90;;;;;;4924264;28;20058;-85
2021/10/03 11:06:27;;;;;;;16.50;12.80;;;17.00;99.90;;;;;;4911196;28;20416;-85
2021/10/03 11:08:57;;;;;;;14.88;12.10;;;17.00;99.90;;;;;;4929900;28;20074;-85
2021/10/03 11:11:30;;;;;;;17.10;12.50;;;17.00;99.90;;;;;;4923432;28;20488;-84
2021/10/03 11:14:20;;;;;;;16.33;11.73;;;17.00;99.90;;;;;;4925011;28;20047;-83
2021/10/03 11:16:50;;;;;;;13.55;11.50;;;17.10;99.90;;;;;;4928607;28;20488;-84
2021/10/03 11:19:22;;;;;;;19.85;14.00;;;17.10;99.90;;;;;;4927058;28;20055;-85
2021/10/03 11:21:56;;;;;;;22.67;13.68;;;17.20;99.90;;;;;;4928428;28;20121;-85
2021/10/03 11:24:46;;;;;;;12.68;11.30;;;17.10;99.90;;;;;;4927971;28;20754;-84
2021/10/03 11:27:19;;;;;;;16.35;11.82;;;17.00;99.90;;;;;;4909746;28;20117;-83
2021/10/03 11:29:55;;;;;;;14.70;12.95;;;17.00;99.90;;;;;;2418673;28;10022973;-83
2021/10/03 11:32:38;;;;;;;13.25;11.25;;;17.00;99.90;;;;;;3881202;28;10000942;-84
2021/10/03 11:35:12;;;;;;;14.57;12.18;;;17.10;99.90;;;;;;4925703;28;20042;-87
2021/10/03 11:37:44;;;;;;;18.55;12.07;;;17.10;99.90;;;;;;4930652;28;20818;-84
2021/10/03 11:40:17;;;;;;;12.55;11.25;;;17.20;99.90;;;;;;4912754;28;20051;-84
2021/10/03 11:42:46;;;;;;;12.60;11.25;;;17.30;99.90;;;;;;4928318;28;20075;-83
2021/10/03 11:45:20;;;;;;;15.13;11.90;;;17.30;99.90;;;;;;4925881;28;20070;-84
2021/10/03 11:47:54;;;;;;;18.17;11.65;;;17.30;99.90;;;;;;4929719;28;20555;-84
2021/10/03 11:50:45;;;;;;;17.35;11.20;;;17.40;99.90;;;;;;4927612;28;20066;-84
2021/10/03 11:53:23;;;;;;;14.35;11.45;;;17.40;99.90;;;;;;4927719;28;20054;-87
2021/10/03 11:56:04;;;;;;;13.85;12.07;;;17.40;99.90;;;;;;4910549;28;20429;-87
2021/10/03 11:58:34;;;;;;;;;;;17.30;99.90;;;;;;4928249;28;20121;-89
2021/10/03 12:01:02;;;;;;;13.02;11.35;;;17.20;99.90;;;;;;4924721;28;19933;-86
2021/10/03 12:03:30;;;;;;;18.10;11.95;;;17.10;99.90;;;;;;4928696;28;20053;-85
2021/10/03 12:05:58;;;;;;;14.18;12.23;;;17.10;99.90;;;;;;4927582;28;20055;-86
2021/10/03 12:08:26;;;;;;;13.63;11.35;;;17.10;99.90;;;;;;4927227;28;20057;-86
2021/10/03 12:11:01;;;;;;;12.75;11.25;;;17.20;99.90;;;;;;4918886;28;20054;-86
2021/10/03 12:13:32;;;;;;;18.35;12.25;;;17.20;99.90;;;;;;4909122;28;20901;-85
2021/10/03 12:16:05;;;;;;;14.07;12.68;;;17.20;99.90;;;;;;4909340;28;20063;-86
2021/10/03 12:18:38;;;;;;;14.95;11.45;;;17.20;99.90;;;;;;4926554;28;20461;-87
2021/10/03 12:21:10;;;;;;;14.98;10.90;;;17.20;99.90;;;;;;4923574;28;20046;-87
2021/10/03 12:24:01;;;;;;;19.88;12.10;;;17.10;99.90;;;;;;4890404;28;20050;-86
2021/10/03 12:26:38;;;;;;;13.10;11.35;;;17.10;99.90;;;;;;4927650;28;20042;-86
2021/10/03 12:29:05;;;;;;;15.63;11.60;;;17.20;99.90;;;;;;4907343;28;21934;-86
2021/10/03 12:31:34;;;;;;;17.17;12.23;;;17.10;99.90;;;;;;4927508;28;20456;-87
2021/10/03 12:34:21;;;;;;;16.13;12.32;;;17.20;99.90;;;;;;4907000;28;20133;-86
2021/10/03 12:37:13;;;;;;;24.83;13.38;;;17.10;99.90;;;;;;4905257;28;20054;-86
2021/10/03 12:39:44;;;;;;;15.30;13.80;;;17.00;99.90;;;;;;4925073;28;20050;-85